sensor_id;sensor_type;location;lat;lon;timestamp;pressure;altitude;pressure_sealevel;temperature;humidity
21234;BME280;10774;42.178;26.578;2023-05-14T00:02:12;100757.56;;;12.02;68.33
21234;BME280;10774;42.178;26.578;2023-05-14T00:04:38;100756.53;;;12.20;70.65
21234;BME280;10774;42.178;26.578;2023-05-14T00:07:03;100739.28;;;12.39;69.10
21234;BME280;10774;42.178;26.578;2023-05-14T00:09:29;100749.53;;;12.48;67.61
21234;BME280;10774;42.178;26.578;2023-05-14T00:11:55;100730.88;;;12.45;66.59
21234;BME280;10774;42.178;26.578;2023-05-14T00:14:21;100741.47;;;12.48;66.70
21234;BME280;10774;42.178;26.578;2023-05-14T00:16:46;100759.31;;;12.35;66.12
21234;BME280;10774;42.178;26.578;2023-05-14T00:19:11;100755.81;;;12.33;65.63
21234;BME280;10774;42.178;26.578;2023-05-14T00:21:37;100750.97;;;12.39;65.57
21234;BME280;10774;42.178;26.578;2023-05-14T00:24:03;100752.34;;;12.30;66.18
21234;BME280;10774;42.178;26.578;2023-05-14T00:26:28;100745.59;;;12.23;66.62
21234;BME280;10774;42.178;26.578;2023-05-14T00:28:53;100748.88;;;12.28;66.36
21234;BME280;10774;42.178;26.578;2023-05-14T00:31:19;100745.59;;;12.23;67.13
21234;BME280;10774;42.178;26.578;2023-05-14T00:33:44;100733.06;;;11.75;70.74
21234;BME280;10774;42.178;26.578;2023-05-14T00:36:10;100754.03;;;11.04;76.66
21234;BME280;10774;42.178;26.578;2023-05-14T00:38:35;100736.19;;;10.51;82.81
21234;BME280;10774;42.178;26.578;2023-05-14T00:41:01;100754.22;;;11.34;80.43
21234;BME280;10774;42.178;26.578;2023-05-14T00:43:26;100732.97;;;10.61;83.60
21234;BME280;10774;42.178;26.578;2023-05-14T00:45:53;100748.66;;;9.60;94.44
21234;BME280;10774;42.178;26.578;2023-05-14T00:48:20;100730.66;;;10.17;93.78
21234;BME280;10774;42.178;26.578;2023-05-14T00:50:46;100711.88;;;10.71;90.19
21234;BME280;10774;42.178;26.578;2023-05-14T00:53:12;100725.59;;;10.82;88.34
21234;BME280;10774;42.178;26.578;2023-05-14T00:55:40;100717.56;;;11.15;85.43
21234;BME280;10774;42.178;26.578;2023-05-14T00:58:11;100717.22;;;11.21;83.19
21234;BME280;10774;42.178;26.578;2023-05-14T01:03:11;100706.31;;;9.48;92.46
21234;BME280;10774;42.178;26.578;2023-05-14T01:11:39;100737.34;;;9.73;94.52
21234;BME280;10774;42.178;26.578;2023-05-14T01:14:31;100718.38;;;9.39;98.93
21234;BME280;10774;42.178;26.578;2023-05-14T01:16:59;100713.72;;;9.81;97.24
21234;BME280;10774;42.178;26.578;2023-05-14T01:19:45;100720.53;;;9.50;98.55
21234;BME280;10774;42.178;26.578;2023-05-14T01:22:11;100716.97;;;9.68;100.00
21234;BME280;10774;42.178;26.578;2023-05-14T01:24:37;100708.88;;;10.06;97.04
21234;BME280;10774;42.178;26.578;2023-05-14T01:27:06;100724.78;;;9.92;97.23
21234;BME280;10774;42.178;26.578;2023-05-14T01:29:37;100731.16;;;8.94;100.00
21234;BME280;10774;42.178;26.578;2023-05-14T01:32:05;100715.47;;;8.66;100.00
21234;BME280;10774;42.178;26.578;2023-05-14T01:34:32;100721.06;;;8.80;100.00
21234;BME280;10774;42.178;26.578;2023-05-14T01:37:00;100726.19;;;9.44;100.00
21234;BME280;10774;42.178;26.578;2023-05-14T01:39:26;100714.44;;;9.47;100.00
21234;BME280;10774;42.178;26.578;2023-05-14T01:41:53;100701.84;;;9.30;100.00
21234;BME280;10774;42.178;26.578;2023-05-14T01:44:19;100707.44;;;9.99;100.00
21234;BME280;10774;42.178;26.578;2023-05-14T01:46:45;100708.09;;;10.21;100.00
21234;BME280;10774;42.178;26.578;2023-05-14T01:49:11;100708.22;;;10.01;100.00
21234;BME280;10774;42.178;26.578;2023-05-14T01:51:36;100698.06;;;10.44;98.83
21234;BME280;10774;42.178;26.578;2023-05-14T01:54:02;100699.75;;;10.80;95.25
21234;BME280;10774;42.178;26.578;2023-05-14T01:56:27;100686.19;;;10.83;93.06
21234;BME280;10774;42.178;26.578;2023-05-14T01:58:53;100689.06;;;10.95;91.28
21234;BME280;10774;42.178;26.578;2023-05-14T02:01:19;100686.16;;;11.00;89.93
21234;BME280;10774;42.178;26.578;2023-05-14T02:03:45;100703.50;;;11.10;89.69
21234;BME280;10774;42.178;26.578;2023-05-14T02:06:10;100698.63;;;11.01;90.90
21234;BME280;10774;42.178;26.578;2023-05-14T02:08:36;100678.97;;;10.50;93.24
21234;BME280;10774;42.178;26.578;2023-05-14T02:11:01;100683.44;;;10.32;95.41
21234;BME280;10774;42.178;26.578;2023-05-14T02:13:26;100686.81;;;10.18;96.88
21234;BME280;10774;42.178;26.578;2023-05-14T02:15:52;100687.06;;;10.48;96.53
21234;BME280;10774;42.178;26.578;2023-05-14T02:18:17;100691.03;;;10.59;94.99
21234;BME280;10774;42.178;26.578;2023-05-14T02:20:43;100696.94;;;10.83;93.57
21234;BME280;10774;42.178;26.578;2023-05-14T02:23:08;100699.13;;;10.92;93.12
21234;BME280;10774;42.178;26.578;2023-05-14T02:25:34;100691.13;;;10.90;93.21
21234;BME280;10774;42.178;26.578;2023-05-14T02:27:59;100688.88;;;10.83;93.25
21234;BME280;10774;42.178;26.578;2023-05-14T02:30:25;100700.69;;;10.96;91.36
21234;BME280;10774;42.178;26.578;2023-05-14T02:32:50;100695.78;;;11.04;87.84
21234;BME280;10774;42.178;26.578;2023-05-14T02:35:15;100690.78;;;11.14;84.61
21234;BME280;10774;42.178;26.578;2023-05-14T02:37:41;100701.19;;;10.87;86.54
21234;BME280;10774;42.178;26.578;2023-05-14T02:40:07;100699.25;;;11.06;89.30
21234;BME280;10774;42.178;26.578;2023-05-14T02:42:33;100700.53;;;10.99;91.01
21234;BME280;10774;42.178;26.578;2023-05-14T02:44:59;100701.72;;;11.26;89.75
21234;BME280;10774;42.178;26.578;2023-05-14T02:47:24;100682.75;;;11.30;86.28
21234;BME280;10774;42.178;26.578;2023-05-14T02:49:50;100697.84;;;11.48;82.20
21234;BME280;10774;42.178;26.578;2023-05-14T02:52:15;100687.94;;;11.48;79.85
21234;BME280;10774;42.178;26.578;2023-05-14T02:54:40;100685.34;;;11.47;79.01
21234;BME280;10774;42.178;26.578;2023-05-14T02:57:06;100693.28;;;11.50;79.36
21234;BME280;10774;42.178;26.578;2023-05-14T02:59:31;100700.28;;;11.52;78.96
21234;BME280;10774;42.178;26.578;2023-05-14T03:01:56;100707.94;;;11.60;78.42
21234;BME280;10774;42.178;26.578;2023-05-14T03:04:22;100705.91;;;11.48;78.99
21234;BME280;10774;42.178;26.578;2023-05-14T03:06:47;100682.41;;;11.36;79.34
21234;BME280;10774;42.178;26.578;2023-05-14T03:09:13;100686.22;;;11.32;79.58
21234;BME280;10774;42.178;26.578;2023-05-14T03:11:38;100699.56;;;11.33;80.06
21234;BME280;10774;42.178;26.578;2023-05-14T03:14:04;100712.75;;;11.38;79.71
21234;BME280;10774;42.178;26.578;2023-05-14T03:16:29;100703.22;;;11.48;80.79
21234;BME280;10774;42.178;26.578;2023-05-14T03:18:55;100712.84;;;11.03;88.05
21234;BME280;10774;42.178;26.578;2023-05-14T03:21:23;100701.19;;;10.87;92.63
21234;BME280;10774;42.178;26.578;2023-05-14T03:23:50;100712.41;;;10.78;93.91
21234;BME280;10774;42.178;26.578;2023-05-14T03:26:16;100721.63;;;10.01;100.00
21234;BME280;10774;42.178;26.578;2023-05-14T03:28:41;100733.44;;;10.52;100.00
21234;BME280;10774;42.178;26.578;2023-05-14T03:31:06;100720.00;;;10.69;99.59
21234;BME280;10774;42.178;26.578;2023-05-14T03:33:32;100728.06;;;10.87;97.84
21234;BME280;10774;42.178;26.578;2023-05-14T03:35:57;100725.72;;;10.96;95.62
21234;BME280;10774;42.178;26.578;2023-05-14T03:38:23;100722.03;;;10.99;93.23
21234;BME280;10774;42.178;26.578;2023-05-14T03:40:48;100727.06;;;11.05;92.69
21234;BME280;10774;42.178;26.578;2023-05-14T03:43:14;100722.88;;;10.99;92.57
21234;BME280;10774;42.178;26.578;2023-05-14T03:45:40;100738.47;;;10.41;95.22
21234;BME280;10774;42.178;26.578;2023-05-14T03:48:05;100746.22;;;10.47;99.61
21234;BME280;10774;42.178;26.578;2023-05-14T03:50:31;100738.38;;;10.60;96.80
21234;BME280;10774;42.178;26.578;2023-05-14T03:52:56;100736.19;;;10.51;97.71
21234;BME280;10774;42.178;26.578;2023-05-14T03:55:22;100714.47;;;10.72;96.15
21234;BME280;10774;42.178;26.578;2023-05-14T03:57:47;100709.25;;;10.69;93.69
21234;BME280;10774;42.178;26.578;2023-05-14T04:00:13;100726.16;;;10.54;95.13
21234;BME280;10774;42.178;26.578;2023-05-14T04:02:39;100736.09;;;11.04;92.60
21234;BME280;10774;42.178;26.578;2023-05-14T04:05:05;100745.75;;;11.57;89.42
21234;BME280;10774;42.178;26.578;2023-05-14T04:07:30;100754.06;;;11.68;86.59
21234;BME280;10774;42.178;26.578;2023-05-14T04:09:56;100756.09;;;11.32;89.36
21234;BME280;10774;42.178;26.578;2023-05-14T04:12:21;100739.06;;;11.15;90.97
21234;BME280;10774;42.178;26.578;2023-05-14T04:14:47;100749.72;;;11.17;93.05
21234;BME280;10774;42.178;26.578;2023-05-14T04:17:12;100752.44;;;11.33;93.62
21234;BME280;10774;42.178;26.578;2023-05-14T04:19:37;100736.22;;;11.67;91.13
21234;BME280;10774;42.178;26.578;2023-05-14T04:22:04;100751.31;;;12.17;85.69
21234;BME280;10774;42.178;26.578;2023-05-14T04:24:30;100738.25;;;12.41;77.42
21234;BME280;10774;42.178;26.578;2023-05-14T04:26:55;100750.81;;;12.87;73.72
21234;BME280;10774;42.178;26.578;2023-05-14T04:29:20;100738.97;;;12.45;73.92
21234;BME280;10774;42.178;26.578;2023-05-14T04:31:48;100738.88;;;12.76;74.52
21234;BME280;10774;42.178;26.578;2023-05-14T04:34:13;100747.13;;;12.73;74.71
21234;BME280;10774;42.178;26.578;2023-05-14T04:36:39;100752.06;;;13.25;73.52
21234;BME280;10774;42.178;26.578;2023-05-14T04:39:05;100733.34;;;13.65;70.13
21234;BME280;10774;42.178;26.578;2023-05-14T04:41:30;100737.28;;;14.15;67.90
21234;BME280;10774;42.178;26.578;2023-05-14T04:43:56;100738.00;;;14.31;66.14
21234;BME280;10774;42.178;26.578;2023-05-14T04:46:21;100742.78;;;14.41;64.14
21234;BME280;10774;42.178;26.578;2023-05-14T04:48:47;100735.03;;;14.49;64.43
21234;BME280;10774;42.178;26.578;2023-05-14T04:51:13;100742.28;;;14.88;64.01
21234;BME280;10774;42.178;26.578;2023-05-14T04:53:38;100742.63;;;15.09;62.64
21234;BME280;10774;42.178;26.578;2023-05-14T04:56:04;100745.97;;;15.38;61.45
21234;BME280;10774;42.178;26.578;2023-05-14T04:58:30;100742.72;;;15.46;60.99
21234;BME280;10774;42.178;26.578;2023-05-14T05:00:57;100753.84;;;15.54;60.68
21234;BME280;10774;42.178;26.578;2023-05-14T05:03:23;100752.25;;;15.64;60.30
21234;BME280;10774;42.178;26.578;2023-05-14T05:05:48;100734.94;;;15.66;59.05
21234;BME280;10774;42.178;26.578;2023-05-14T05:08:14;100757.41;;;15.92;57.91
21234;BME280;10774;42.178;26.578;2023-05-14T05:10:39;100750.88;;;15.95;57.46
21234;BME280;10774;42.178;26.578;2023-05-14T05:13:05;100743.09;;;15.90;57.91
21234;BME280;10774;42.178;26.578;2023-05-14T05:15:30;100748.31;;;15.81;57.39
21234;BME280;10774;42.178;26.578;2023-05-14T05:17:55;100738.00;;;15.86;57.88
21234;BME280;10774;42.178;26.578;2023-05-14T05:20:21;100731.72;;;16.22;57.50
21234;BME280;10774;42.178;26.578;2023-05-14T05:22:47;100738.50;;;16.04;58.26
21234;BME280;10774;42.178;26.578;2023-05-14T05:25:12;100744.78;;;16.28;57.72
21234;BME280;10774;42.178;26.578;2023-05-14T05:27:38;100719.41;;;16.29;57.50
21234;BME280;10774;42.178;26.578;2023-05-14T05:30:04;100738.72;;;16.48;56.60
21234;BME280;10774;42.178;26.578;2023-05-14T05:32:30;100744.16;;;16.48;56.07
21234;BME280;10774;42.178;26.578;2023-05-14T05:34:56;100724.50;;;16.58;55.59
21234;BME280;10774;42.178;26.578;2023-05-14T05:37:21;100742.22;;;16.51;55.13
21234;BME280;10774;42.178;26.578;2023-05-14T05:39:47;100722.16;;;16.88;54.43
21234;BME280;10774;42.178;26.578;2023-05-14T05:42:12;100740.81;;;17.15;52.99
21234;BME280;10774;42.178;26.578;2023-05-14T05:44:38;100766.25;;;17.37;52.93
21234;BME280;10774;42.178;26.578;2023-05-14T05:47:03;100760.19;;;17.22;52.45
21234;BME280;10774;42.178;26.578;2023-05-14T05:49:29;100768.97;;;17.25;52.56
21234;BME280;10774;42.178;26.578;2023-05-14T05:51:55;100763.28;;;17.40;52.67
21234;BME280;10774;42.178;26.578;2023-05-14T05:54:22;100771.06;;;17.44;51.78
21234;BME280;10774;42.178;26.578;2023-05-14T05:56:48;100777.97;;;17.37;50.90
21234;BME280;10774;42.178;26.578;2023-05-14T05:59:13;100780.16;;;17.21;51.05
21234;BME280;10774;42.178;26.578;2023-05-14T06:01:39;100782.66;;;17.35;50.98
21234;BME280;10774;42.178;26.578;2023-05-14T06:04:05;100781.19;;;17.54;50.61
21234;BME280;10774;42.178;26.578;2023-05-14T06:06:30;100790.63;;;17.94;49.95
21234;BME280;10774;42.178;26.578;2023-05-14T06:08:57;100784.41;;;17.70;50.23
21234;BME280;10774;42.178;26.578;2023-05-14T06:11:22;100770.84;;;18.15;54.68
21234;BME280;10774;42.178;26.578;2023-05-14T06:13:47;100775.47;;;18.35;56.26
21234;BME280;10774;42.178;26.578;2023-05-14T06:16:13;100762.81;;;18.89;55.02
21234;BME280;10774;42.178;26.578;2023-05-14T06:18:38;100747.75;;;18.52;49.68
21234;BME280;10774;42.178;26.578;2023-05-14T06:21:04;100769.09;;;18.68;50.79
21234;BME280;10774;42.178;26.578;2023-05-14T06:23:29;100759.03;;;19.01;57.33
21234;BME280;10774;42.178;26.578;2023-05-14T06:25:55;100769.78;;;19.75;58.02
21234;BME280;10774;42.178;26.578;2023-05-14T06:28:20;100755.38;;;19.94;55.32
21234;BME280;10774;42.178;26.578;2023-05-14T06:30:48;100760.63;;;20.26;56.93
21234;BME280;10774;42.178;26.578;2023-05-14T06:33:14;100744.41;;;20.34;52.11
21234;BME280;10774;42.178;26.578;2023-05-14T06:35:40;100754.25;;;20.46;51.81
21234;BME280;10774;42.178;26.578;2023-05-14T06:38:05;100762.28;;;20.57;47.36
21234;BME280;10774;42.178;26.578;2023-05-14T06:40:30;100783.25;;;20.76;51.38
21234;BME280;10774;42.178;26.578;2023-05-14T06:42:56;100775.59;;;20.41;45.54
21234;BME280;10774;42.178;26.578;2023-05-14T06:45:21;100782.09;;;20.59;54.15
21234;BME280;10774;42.178;26.578;2023-05-14T06:47:47;100791.00;;;21.00;50.42
21234;BME280;10774;42.178;26.578;2023-05-14T06:50:12;100784.34;;;21.22;43.95
21234;BME280;10774;42.178;26.578;2023-05-14T06:52:38;100775.72;;;21.27;42.65
21234;BME280;10774;42.178;26.578;2023-05-14T06:55:03;100752.44;;;21.42;41.49
21234;BME280;10774;42.178;26.578;2023-05-14T06:57:29;100768.00;;;20.93;41.14
21234;BME280;10774;42.178;26.578;2023-05-14T06:59:54;100779.53;;;20.68;40.81
21234;BME280;10774;42.178;26.578;2023-05-14T07:02:20;100778.63;;;20.77;40.50
21234;BME280;10774;42.178;26.578;2023-05-14T07:04:45;100783.81;;;20.60;41.49
21234;BME280;10774;42.178;26.578;2023-05-14T07:07:10;100783.66;;;20.72;42.03
21234;BME280;10774;42.178;26.578;2023-05-14T07:09:40;100786.81;;;20.77;41.19
21234;BME280;10774;42.178;26.578;2023-05-14T07:12:06;100791.28;;;20.58;41.14
21234;BME280;10774;42.178;26.578;2023-05-14T07:14:32;100793.88;;;20.79;41.38
21234;BME280;10774;42.178;26.578;2023-05-14T07:16:57;100798.47;;;20.88;40.87
21234;BME280;10774;42.178;26.578;2023-05-14T07:19:23;100807.06;;;20.55;40.62
21234;BME280;10774;42.178;26.578;2023-05-14T07:21:48;100788.00;;;20.84;40.80
21234;BME280;10774;42.178;26.578;2023-05-14T07:24:13;100794.00;;;21.17;40.34
21234;BME280;10774;42.178;26.578;2023-05-14T07:26:39;100782.94;;;21.08;39.59
21234;BME280;10774;42.178;26.578;2023-05-14T07:29:05;100799.88;;;21.41;39.49
21234;BME280;10774;42.178;26.578;2023-05-14T07:31:30;100775.34;;;20.63;38.98
21234;BME280;10774;42.178;26.578;2023-05-14T07:33:55;100814.56;;;21.21;39.75
21234;BME280;10774;42.178;26.578;2023-05-14T07:36:21;100797.53;;;21.56;39.56
21234;BME280;10774;42.178;26.578;2023-05-14T07:38:46;100775.47;;;21.10;38.99
21234;BME280;10774;42.178;26.578;2023-05-14T07:41:12;100779.69;;;21.61;38.02
21234;BME280;10774;42.178;26.578;2023-05-14T07:43:37;100788.63;;;21.54;36.66
21234;BME280;10774;42.178;26.578;2023-05-14T07:46:04;100779.06;;;20.82;36.72
21234;BME280;10774;42.178;26.578;2023-05-14T07:48:29;100795.00;;;20.57;38.54
21234;BME280;10774;42.178;26.578;2023-05-14T07:50:55;100783.38;;;20.75;38.83
21234;BME280;10774;42.178;26.578;2023-05-14T07:53:20;100791.53;;;21.13;37.76
21234;BME280;10774;42.178;26.578;2023-05-14T07:55:47;100790.25;;;21.37;37.79
21234;BME280;10774;42.178;26.578;2023-05-14T07:58:13;100792.28;;;21.72;38.69
21234;BME280;10774;42.178;26.578;2023-05-14T08:00:38;100782.00;;;21.56;37.44
21234;BME280;10774;42.178;26.578;2023-05-14T08:03:04;100802.50;;;21.80;37.79
21234;BME280;10774;42.178;26.578;2023-05-14T08:05:29;100778.63;;;20.96;37.07
21234;BME280;10774;42.178;26.578;2023-05-14T08:07:55;100818.25;;;20.61;37.78
21234;BME280;10774;42.178;26.578;2023-05-14T08:10:21;100811.97;;;21.09;37.20
21234;BME280;10774;42.178;26.578;2023-05-14T08:12:46;100783.88;;;20.20;37.28
21234;BME280;10774;42.178;26.578;2023-05-14T08:15:12;100793.72;;;20.11;39.04
21234;BME280;10774;42.178;26.578;2023-05-14T08:17:37;100799.25;;;20.31;38.83
21234;BME280;10774;42.178;26.578;2023-05-14T08:20:03;100801.06;;;20.90;38.62
21234;BME280;10774;42.178;26.578;2023-05-14T08:22:30;100784.94;;;21.06;38.14
21234;BME280;10774;42.178;26.578;2023-05-14T08:24:56;100802.78;;;21.10;36.91
21234;BME280;10774;42.178;26.578;2023-05-14T08:27:21;100804.50;;;21.31;36.96
21234;BME280;10774;42.178;26.578;2023-05-14T08:29:47;100781.19;;;21.27;36.43
21234;BME280;10774;42.178;26.578;2023-05-14T08:32:12;100781.94;;;21.76;37.24
21234;BME280;10774;42.178;26.578;2023-05-14T08:34:38;100767.47;;;21.93;37.24
21234;BME280;10774;42.178;26.578;2023-05-14T08:37:03;100784.78;;;21.84;37.20
21234;BME280;10774;42.178;26.578;2023-05-14T08:39:29;100774.34;;;21.97;37.21
21234;BME280;10774;42.178;26.578;2023-05-14T08:41:56;100785.41;;;22.33;37.39
21234;BME280;10774;42.178;26.578;2023-05-14T08:46:57;100762.53;;;21.32;36.47
21234;BME280;10774;42.178;26.578;2023-05-14T08:49:40;100774.97;;;20.28;38.34
21234;BME280;10774;42.178;26.578;2023-05-14T08:52:10;100769.47;;;21.63;36.82
21234;BME280;10774;42.178;26.578;2023-05-14T08:54:36;100779.69;;;21.61;36.22
21234;BME280;10774;42.178;26.578;2023-05-14T08:57:05;100764.44;;;21.96;35.10
21234;BME280;10774;42.178;26.578;2023-05-14T08:59:33;100780.13;;;22.49;35.08
21234;BME280;10774;42.178;26.578;2023-05-14T09:02:00;100778.34;;;22.76;33.36
21234;BME280;10774;42.178;26.578;2023-05-14T09:04:26;100783.25;;;22.54;33.94
21234;BME280;10774;42.178;26.578;2023-05-14T09:06:53;100764.91;;;21.54;34.79
21234;BME280;10774;42.178;26.578;2023-05-14T09:09:18;100770.56;;;21.24;35.75
21234;BME280;10774;42.178;26.578;2023-05-14T09:11:51;100770.97;;;21.48;35.75
21234;BME280;10774;42.178;26.578;2023-05-14T09:14:17;100780.59;;;21.52;36.13
21234;BME280;10774;42.178;26.578;2023-05-14T09:16:47;100790.69;;;21.42;36.60
21234;BME280;10774;42.178;26.578;2023-05-14T09:19:14;100784.78;;;21.27;37.49
21234;BME280;10774;42.178;26.578;2023-05-14T09:21:40;100797.59;;;21.07;37.85
21234;BME280;10774;42.178;26.578;2023-05-14T09:24:06;100792.44;;;21.04;37.78
21234;BME280;10774;42.178;26.578;2023-05-14T09:26:33;100782.38;;;20.76;38.46
21234;BME280;10774;42.178;26.578;2023-05-14T09:28:59;100790.13;;;20.61;39.73
21234;BME280;10774;42.178;26.578;2023-05-14T09:31:29;100783.75;;;20.31;41.51
21234;BME280;10774;42.178;26.578;2023-05-14T09:33:56;100782.28;;;20.27;42.16
21234;BME280;10774;42.178;26.578;2023-05-14T09:36:22;100791.78;;;20.33;42.17
21234;BME280;10774;42.178;26.578;2023-05-14T09:38:49;100789.16;;;20.22;42.76
21234;BME280;10774;42.178;26.578;2023-05-14T09:41:15;100786.00;;;20.17;43.46
21234;BME280;10774;42.178;26.578;2023-05-14T09:43:41;100799.75;;;20.05;45.01
21234;BME280;10774;42.178;26.578;2023-05-14T09:46:06;100794.03;;;20.18;44.55
21234;BME280;10774;42.178;26.578;2023-05-14T09:48:32;100789.50;;;19.88;44.39
21234;BME280;10774;42.178;26.578;2023-05-14T09:50:57;100809.38;;;19.79;44.19
21234;BME280;10774;42.178;26.578;2023-05-14T09:53:23;100804.59;;;19.50;45.92
21234;BME280;10774;42.178;26.578;2023-05-14T09:55:49;100792.41;;;19.24;46.75
21234;BME280;10774;42.178;26.578;2023-05-14T09:58:15;100807.06;;;18.91;47.54
21234;BME280;10774;42.178;26.578;2023-05-14T10:00:44;100796.63;;;18.75;47.36
21234;BME280;10774;42.178;26.578;2023-05-14T10:03:12;100810.69;;;18.80;47.41
21234;BME280;10774;42.178;26.578;2023-05-14T10:05:39;100806.41;;;18.55;47.31
21234;BME280;10774;42.178;26.578;2023-05-14T10:08:12;100816.91;;;18.71;48.00
21234;BME280;10774;42.178;26.578;2023-05-14T10:10:38;100820.09;;;18.76;47.51
21234;BME280;10774;42.178;26.578;2023-05-14T10:13:12;100816.59;;;18.85;47.64
21234;BME280;10774;42.178;26.578;2023-05-14T10:15:42;100819.09;;;18.88;48.32
21234;BME280;10774;42.178;26.578;2023-05-14T10:18:13;100826.50;;;18.86;48.15
21234;BME280;10774;42.178;26.578;2023-05-14T10:20:40;100812.84;;;18.97;49.02
21234;BME280;10774;42.178;26.578;2023-05-14T10:23:06;100797.31;;;18.88;50.01
21234;BME280;10774;42.178;26.578;2023-05-14T10:25:33;100783.28;;;18.93;50.77
21234;BME280;10774;42.178;26.578;2023-05-14T10:27:59;100796.50;;;18.97;50.99
21234;BME280;10774;42.178;26.578;2023-05-14T10:30:25;100767.91;;;18.82;52.07
21234;BME280;10774;42.178;26.578;2023-05-14T10:33:11;100776.75;;;18.95;51.99
21234;BME280;10774;42.178;26.578;2023-05-14T10:38:34;100765.53;;;19.30;51.60
21234;BME280;10774;42.178;26.578;2023-05-14T10:41:10;100768.38;;;19.29;50.09
21234;BME280;10774;42.178;26.578;2023-05-14T10:43:38;100767.72;;;19.37;51.60
21234;BME280;10774;42.178;26.578;2023-05-14T10:46:04;100769.88;;;19.64;51.53
21234;BME280;10774;42.178;26.578;2023-05-14T10:48:31;100775.34;;;19.64;49.96
21234;BME280;10774;42.178;26.578;2023-05-14T10:50:57;100753.50;;;19.33;50.65
21234;BME280;10774;42.178;26.578;2023-05-14T10:53:36;100751.50;;;19.35;51.42
21234;BME280;10774;42.178;26.578;2023-05-14T10:56:06;100741.53;;;19.24;50.17
21234;BME280;10774;42.178;26.578;2023-05-14T10:58:50;100739.47;;;19.38;51.17
21234;BME280;10774;42.178;26.578;2023-05-14T11:01:15;100736.13;;;19.55;52.03
21234;BME280;10774;42.178;26.578;2023-05-14T11:03:45;100729.56;;;19.88;51.68
21234;BME280;10774;42.178;26.578;2023-05-14T11:06:13;100731.78;;;20.23;49.63
21234;BME280;10774;42.178;26.578;2023-05-14T11:08:39;100730.34;;;20.29;47.70
21234;BME280;10774;42.178;26.578;2023-05-14T11:11:06;100735.09;;;20.27;48.67
21234;BME280;10774;42.178;26.578;2023-05-14T11:13:31;100740.44;;;20.48;48.75
21234;BME280;10774;42.178;26.578;2023-05-14T11:16:00;100746.03;;;20.56;47.29
21234;BME280;10774;42.178;26.578;2023-05-14T11:18:27;100738.59;;;20.48;48.80
21234;BME280;10774;42.178;26.578;2023-05-14T11:20:53;100719.50;;;20.48;49.69
21234;BME280;10774;42.178;26.578;2023-05-14T11:23:22;100704.84;;;20.49;50.06
21234;BME280;10774;42.178;26.578;2023-05-14T11:25:50;100710.00;;;20.72;49.96
21234;BME280;10774;42.178;26.578;2023-05-14T11:28:16;100694.78;;;20.69;50.17
21234;BME280;10774;42.178;26.578;2023-05-14T11:30:42;100701.97;;;20.60;49.45
21234;BME280;10774;42.178;26.578;2023-05-14T11:33:08;100700.25;;;20.59;50.01
21234;BME280;10774;42.178;26.578;2023-05-14T11:35:34;100703.25;;;20.76;50.94
21234;BME280;10774;42.178;26.578;2023-05-14T11:38:00;100668.94;;;20.73;49.57
21234;BME280;10774;42.178;26.578;2023-05-14T11:40:26;100684.88;;;20.78;49.92
21234;BME280;10774;42.178;26.578;2023-05-14T11:42:51;100710.16;;;20.80;47.92
21234;BME280;10774;42.178;26.578;2023-05-14T11:45:24;100712.59;;;20.54;47.66
21234;BME280;10774;42.178;26.578;2023-05-14T11:47:51;100695.63;;;20.31;47.62
21234;BME280;10774;42.178;26.578;2023-05-14T11:50:17;100702.97;;;20.30;47.48
21234;BME280;10774;42.178;26.578;2023-05-14T11:52:43;100701.63;;;20.34;46.76
21234;BME280;10774;42.178;26.578;2023-05-14T11:55:11;100683.75;;;20.51;47.76
21234;BME280;10774;42.178;26.578;2023-05-14T11:57:37;100697.09;;;20.74;46.05
21234;BME280;10774;42.178;26.578;2023-05-14T12:00:03;100699.09;;;20.72;44.90
21234;BME280;10774;42.178;26.578;2023-05-14T12:02:30;100688.16;;;20.91;45.59
21234;BME280;10774;42.178;26.578;2023-05-14T12:04:56;100696.34;;;20.91;46.27
21234;BME280;10774;42.178;26.578;2023-05-14T12:07:21;100686.88;;;20.85;45.01
21234;BME280;10774;42.178;26.578;2023-05-14T12:09:48;100685.84;;;20.96;44.66
21234;BME280;10774;42.178;26.578;2023-05-14T12:12:17;100684.75;;;20.60;45.70
21234;BME280;10774;42.178;26.578;2023-05-14T12:14:44;100683.75;;;20.51;46.79
21234;BME280;10774;42.178;26.578;2023-05-14T12:19:42;100655.91;;;20.57;48.63
21234;BME280;10774;42.178;26.578;2023-05-14T12:22:09;100643.53;;;20.34;50.52
21234;BME280;10774;42.178;26.578;2023-05-14T12:24:35;100648.97;;;19.95;49.35
21234;BME280;10774;42.178;26.578;2023-05-14T12:27:02;100659.84;;;19.85;50.21
21234;BME280;10774;42.178;26.578;2023-05-14T12:29:27;100658.41;;;19.91;49.11
21234;BME280;10774;42.178;26.578;2023-05-14T12:31:56;100655.56;;;20.02;48.57
21234;BME280;10774;42.178;26.578;2023-05-14T12:34:21;100648.25;;;19.93;49.38
21234;BME280;10774;42.178;26.578;2023-05-14T12:36:47;100649.97;;;19.94;49.19
21234;BME280;10774;42.178;26.578;2023-05-14T12:39:12;100645.63;;;19.82;50.40
21234;BME280;10774;42.178;26.578;2023-05-14T12:41:38;100624.34;;;19.56;52.71
21234;BME280;10774;42.178;26.578;2023-05-14T12:44:04;100633.59;;;19.75;52.11
21234;BME280;10774;42.178;26.578;2023-05-14T12:46:29;100636.63;;;19.91;51.38
21234;BME280;10774;42.178;26.578;2023-05-14T12:48:55;100622.97;;;19.81;52.32
21234;BME280;10774;42.178;26.578;2023-05-14T12:51:21;100623.84;;;19.82;52.00
21234;BME280;10774;42.178;26.578;2023-05-14T12:53:47;100637.06;;;19.96;52.55